sensor_id;sensor_type;location;lat;lon;timestamp;P1;durP1;ratioP1;P2;durP2;ratioP2
69799;SDS011;67217;51.008;4.644;2024-02-21T00:01:50;29.57;;;10.65;;
69799;SDS011;67217;51.008;4.644;2024-02-21T00:04:17;26.05;;;10.75;;
69799;SDS011;67217;51.008;4.644;2024-02-21T00:06:45;31.82;;;11.25;;
69799;SDS011;67217;51.008;4.644;2024-02-21T00:09:13;27.30;;;10.25;;
69799;SDS011;67217;51.008;4.644;2024-02-21T00:11:40;30.10;;;10.60;;
69799;SDS011;67217;51.008;4.644;2024-02-21T00:16:55;38.15;;;11.60;;
69799;SDS011;67217;51.008;4.644;2024-02-21T00:19:23;26.05;;;9.98;;
69799;SDS011;67217;51.008;4.644;2024-02-21T00:21:51;29.63;;;11.30;;
69799;SDS011;67217;51.008;4.644;2024-02-21T00:27:06;26.15;;;10.03;;
69799;SDS011;67217;51.008;4.644;2024-02-21T00:29:33;24.98;;;10.23;;
69799;SDS011;67217;51.008;4.644;2024-02-21T00:32:01;23.90;;;9.20;;
69799;SDS011;67217;51.008;4.644;2024-02-21T00:34:29;26.27;;;10.20;;
69799;SDS011;67217;51.008;4.644;2024-02-21T00:36:57;23.25;;;9.13;;
69799;SDS011;67217;51.008;4.644;2024-02-21T00:39:25;27.40;;;9.48;;
69799;SDS011;67217;51.008;4.644;2024-02-21T00:41:53;28.73;;;9.73;;
69799;SDS011;67217;51.008;4.644;2024-02-21T00:44:20;26.30;;;9.50;;
69799;SDS011;67217;51.008;4.644;2024-02-21T00:46:48;28.85;;;9.55;;
69799;SDS011;67217;51.008;4.644;2024-02-21T00:49:16;24.80;;;8.63;;
69799;SDS011;67217;51.008;4.644;2024-02-21T00:51:44;24.95;;;9.05;;
69799;SDS011;67217;51.008;4.644;2024-02-21T00:54:11;22.50;;;8.13;;
69799;SDS011;67217;51.008;4.644;2024-02-21T00:56:39;19.32;;;8.18;;
69799;SDS011;67217;51.008;4.644;2024-02-21T00:59:07;20.97;;;7.60;;
69799;SDS011;67217;51.008;4.644;2024-02-21T01:01:34;21.00;;;7.70;;
69799;SDS011;67217;51.008;4.644;2024-02-21T01:04:02;20.77;;;8.33;;
69799;SDS011;67217;51.008;4.644;2024-02-21T01:06:35;19.98;;;7.58;;
69799;SDS011;67217;51.008;4.644;2024-02-21T01:11:50;22.95;;;8.35;;
69799;SDS011;67217;51.008;4.644;2024-02-21T01:14:17;20.40;;;7.50;;
69799;SDS011;67217;51.008;4.644;2024-02-21T01:16:45;17.82;;;7.17;;
69799;SDS011;67217;51.008;4.644;2024-02-21T01:19:13;19.98;;;8.23;;
69799;SDS011;67217;51.008;4.644;2024-02-21T01:21:40;19.40;;;7.70;;
69799;SDS011;67217;51.008;4.644;2024-02-21T01:24:08;21.30;;;8.40;;
69799;SDS011;67217;51.008;4.644;2024-02-21T01:26:35;22.20;;;8.45;;
69799;SDS011;67217;51.008;4.644;2024-02-21T01:29:03;16.95;;;8.23;;
69799;SDS011;67217;51.008;4.644;2024-02-21T01:31:30;26.55;;;9.83;;
69799;SDS011;67217;51.008;4.644;2024-02-21T01:33:58;22.42;;;9.25;;
69799;SDS011;67217;51.008;4.644;2024-02-21T01:36:26;25.97;;;8.98;;
69799;SDS011;67217;51.008;4.644;2024-02-21T01:38:53;21.17;;;9.00;;
69799;SDS011;67217;51.008;4.644;2024-02-21T01:41:21;22.93;;;9.80;;
69799;SDS011;67217;51.008;4.644;2024-02-21T01:43:48;28.00;;;10.20;;
69799;SDS011;67217;51.008;4.644;2024-02-21T01:46:16;26.10;;;10.50;;
69799;SDS011;67217;51.008;4.644;2024-02-21T01:48:45;25.65;;;10.63;;
69799;SDS011;67217;51.008;4.644;2024-02-21T01:51:12;21.25;;;9.68;;
69799;SDS011;67217;51.008;4.644;2024-02-21T01:53:43;27.50;;;11.05;;
69799;SDS011;67217;51.008;4.644;2024-02-21T01:56:12;28.47;;;11.68;;
69799;SDS011;67217;51.008;4.644;2024-02-21T01:58:41;30.35;;;11.00;;
69799;SDS011;67217;51.008;4.644;2024-02-21T02:01:10;30.20;;;12.30;;
69799;SDS011;67217;51.008;4.644;2024-02-21T02:03:38;26.93;;;12.73;;
69799;SDS011;67217;51.008;4.644;2024-02-21T02:06:06;29.87;;;12.95;;
69799;SDS011;67217;51.008;4.644;2024-02-21T02:08:34;31.05;;;13.43;;
69799;SDS011;67217;51.008;4.644;2024-02-21T02:11:01;31.62;;;12.30;;
69799;SDS011;67217;51.008;4.644;2024-02-21T02:13:29;28.07;;;12.60;;
69799;SDS011;67217;51.008;4.644;2024-02-21T02:15:57;30.50;;;13.75;;
69799;SDS011;67217;51.008;4.644;2024-02-21T02:18:24;34.35;;;13.20;;
69799;SDS011;67217;51.008;4.644;2024-02-21T02:20:52;30.12;;;12.85;;
69799;SDS011;67217;51.008;4.644;2024-02-21T02:25:51;27.98;;;12.33;;
69799;SDS011;67217;51.008;4.644;2024-02-21T02:28:18;27.10;;;12.10;;
69799;SDS011;67217;51.008;4.644;2024-02-21T02:30:47;31.57;;;12.25;;
69799;SDS011;67217;51.008;4.644;2024-02-21T02:33:15;25.90;;;10.78;;
69799;SDS011;67217;51.008;4.644;2024-02-21T02:35:45;28.02;;;12.25;;
69799;SDS011;67217;51.008;4.644;2024-02-21T02:38:13;26.85;;;11.28;;
69799;SDS011;67217;51.008;4.644;2024-02-21T02:40:41;31.48;;;13.18;;
69799;SDS011;67217;51.008;4.644;2024-02-21T02:43:09;27.67;;;12.28;;
69799;SDS011;67217;51.008;4.644;2024-02-21T02:45:37;25.85;;;11.48;;
69799;SDS011;67217;51.008;4.644;2024-02-21T02:48:04;26.82;;;11.40;;
69799;SDS011;67217;51.008;4.644;2024-02-21T02:50:32;27.87;;;11.40;;
69799;SDS011;67217;51.008;4.644;2024-02-21T02:53:00;20.82;;;10.78;;
69799;SDS011;67217;51.008;4.644;2024-02-21T02:55:29;26.60;;;9.88;;
69799;SDS011;67217;51.008;4.644;2024-02-21T02:57:56;23.98;;;10.10;;
69799;SDS011;67217;51.008;4.644;2024-02-21T03:00:24;22.02;;;10.48;;
69799;SDS011;67217;51.008;4.644;2024-02-21T03:02:52;27.55;;;10.28;;
69799;SDS011;67217;51.008;4.644;2024-02-21T03:05:20;23.83;;;9.50;;
69799;SDS011;67217;51.008;4.644;2024-02-21T03:07:48;19.90;;;9.43;;
69799;SDS011;67217;51.008;4.644;2024-02-21T03:10:16;22.55;;;9.70;;
69799;SDS011;67217;51.008;4.644;2024-02-21T03:12:44;24.70;;;9.88;;
69799;SDS011;67217;51.008;4.644;2024-02-21T03:15:11;20.27;;;8.93;;
69799;SDS011;67217;51.008;4.644;2024-02-21T03:17:40;25.37;;;9.98;;
69799;SDS011;67217;51.008;4.644;2024-02-21T03:22:54;23.60;;;9.93;;
69799;SDS011;67217;51.008;4.644;2024-02-21T03:25:22;20.95;;;9.68;;
69799;SDS011;67217;51.008;4.644;2024-02-21T03:27:50;22.27;;;10.00;;
69799;SDS011;67217;51.008;4.644;2024-02-21T03:30:17;21.82;;;9.70;;
69799;SDS011;67217;51.008;4.644;2024-02-21T03:32:45;21.97;;;9.45;;
69799;SDS011;67217;51.008;4.644;2024-02-21T03:35:12;24.50;;;9.88;;
69799;SDS011;67217;51.008;4.644;2024-02-21T03:37:41;18.82;;;8.80;;
69799;SDS011;67217;51.008;4.644;2024-02-21T03:40:11;20.48;;;9.50;;
69799;SDS011;67217;51.008;4.644;2024-02-21T03:42:38;23.73;;;10.08;;
69799;SDS011;67217;51.008;4.644;2024-02-21T03:45:06;21.87;;;9.63;;
69799;SDS011;67217;51.008;4.644;2024-02-21T03:47:35;21.23;;;9.70;;
69799;SDS011;67217;51.008;4.644;2024-02-21T03:50:02;25.82;;;9.63;;
69799;SDS011;67217;51.008;4.644;2024-02-21T03:52:30;21.55;;;10.68;;
69799;SDS011;67217;51.008;4.644;2024-02-21T03:54:57;20.68;;;9.63;;
69799;SDS011;67217;51.008;4.644;2024-02-21T03:57:31;23.92;;;10.43;;
69799;SDS011;67217;51.008;4.644;2024-02-21T03:59:59;22.37;;;9.75;;
69799;SDS011;67217;51.008;4.644;2024-02-21T04:02:26;25.05;;;10.28;;
69799;SDS011;67217;51.008;4.644;2024-02-21T04:04:54;21.23;;;10.32;;
69799;SDS011;67217;51.008;4.644;2024-02-21T04:07:22;25.60;;;10.55;;
69799;SDS011;67217;51.008;4.644;2024-02-21T04:09:49;26.17;;;10.98;;
69799;SDS011;67217;51.008;4.644;2024-02-21T04:12:17;31.17;;;11.50;;
69799;SDS011;67217;51.008;4.644;2024-02-21T04:14:44;27.20;;;10.93;;
69799;SDS011;67217;51.008;4.644;2024-02-21T04:17:12;24.90;;;11.00;;
69799;SDS011;67217;51.008;4.644;2024-02-21T04:19:40;26.40;;;11.55;;
69799;SDS011;67217;51.008;4.644;2024-02-21T04:22:07;27.85;;;12.07;;
69799;SDS011;67217;51.008;4.644;2024-02-21T04:24:35;21.65;;;11.43;;
69799;SDS011;67217;51.008;4.644;2024-02-21T04:27:02;25.65;;;11.93;;
69799;SDS011;67217;51.008;4.644;2024-02-21T04:29:31;26.30;;;12.10;;
69799;SDS011;67217;51.008;4.644;2024-02-21T04:31:59;23.15;;;11.22;;
69799;SDS011;67217;51.008;4.644;2024-02-21T04:34:28;23.70;;;10.45;;
69799;SDS011;67217;51.008;4.644;2024-02-21T04:36:56;26.73;;;11.03;;
69799;SDS011;67217;51.008;4.644;2024-02-21T04:39:24;24.18;;;11.25;;
69799;SDS011;67217;51.008;4.644;2024-02-21T04:41:51;22.35;;;10.60;;
69799;SDS011;67217;51.008;4.644;2024-02-21T04:44:19;22.15;;;10.75;;
69799;SDS011;67217;51.008;4.644;2024-02-21T04:46:48;23.73;;;10.68;;
69799;SDS011;67217;51.008;4.644;2024-02-21T04:49:15;23.02;;;10.58;;
69799;SDS011;67217;51.008;4.644;2024-02-21T04:51:43;22.60;;;10.88;;
69799;SDS011;67217;51.008;4.644;2024-02-21T04:54:11;22.73;;;10.32;;
69799;SDS011;67217;51.008;4.644;2024-02-21T04:56:38;19.30;;;10.58;;
69799;SDS011;67217;51.008;4.644;2024-02-21T04:59:06;23.98;;;10.93;;
69799;SDS011;67217;51.008;4.644;2024-02-21T05:01:34;19.07;;;9.95;;
69799;SDS011;67217;51.008;4.644;2024-02-21T05:04:01;27.00;;;11.70;;
69799;SDS011;67217;51.008;4.644;2024-02-21T05:06:29;20.12;;;10.35;;
69799;SDS011;67217;51.008;4.644;2024-02-21T05:08:57;24.05;;;11.12;;
69799;SDS011;67217;51.008;4.644;2024-02-21T05:11:25;19.60;;;9.53;;
69799;SDS011;67217;51.008;4.644;2024-02-21T05:13:53;20.43;;;9.98;;
69799;SDS011;67217;51.008;4.644;2024-02-21T05:16:21;19.95;;;9.73;;
69799;SDS011;67217;51.008;4.644;2024-02-21T05:18:48;23.57;;;9.68;;
69799;SDS011;67217;51.008;4.644;2024-02-21T05:21:16;19.30;;;9.05;;
69799;SDS011;67217;51.008;4.644;2024-02-21T05:23:43;20.45;;;9.55;;
69799;SDS011;67217;51.008;4.644;2024-02-21T05:26:11;20.15;;;9.23;;
69799;SDS011;67217;51.008;4.644;2024-02-21T05:28:40;19.00;;;8.93;;
69799;SDS011;67217;51.008;4.644;2024-02-21T05:31:08;16.87;;;9.03;;
69799;SDS011;67217;51.008;4.644;2024-02-21T05:33:35;16.77;;;8.83;;
69799;SDS011;67217;51.008;4.644;2024-02-21T05:36:03;18.65;;;9.43;;
69799;SDS011;67217;51.008;4.644;2024-02-21T05:38:31;21.35;;;9.23;;
69799;SDS011;67217;51.008;4.644;2024-02-21T05:40:59;16.40;;;8.75;;
69799;SDS011;67217;51.008;4.644;2024-02-21T05:43:26;21.15;;;8.93;;
69799;SDS011;67217;51.008;4.644;2024-02-21T05:45:54;17.90;;;8.95;;
69799;SDS011;67217;51.008;4.644;2024-02-21T05:48:22;19.80;;;9.30;;
69799;SDS011;67217;51.008;4.644;2024-02-21T05:50:50;19.07;;;9.68;;
69799;SDS011;67217;51.008;4.644;2024-02-21T05:53:17;20.37;;;9.35;;
69799;SDS011;67217;51.008;4.644;2024-02-21T05:55:45;19.95;;;9.43;;
